sensor_id;sensor_type;location;lat;lon;timestamp;P1;durP1;ratioP1;P2;durP2;ratioP2
11263;SDS011;5689;48.798;9.070;2022-10-17T00:00:26;0.68;;;0.68;;
11263;SDS011;5689;48.798;9.070;2022-10-17T00:02:55;0.75;;;0.75;;
11263;SDS011;5689;48.798;9.070;2022-10-17T00:05:23;0.63;;;0.63;;
11263;SDS011;5689;48.798;9.070;2022-10-17T00:07:51;0.75;;;0.75;;
11263;SDS011;5689;48.798;9.070;2022-10-17T00:10:20;0.65;;;0.65;;
11263;SDS011;5689;48.798;9.070;2022-10-17T00:12:49;0.68;;;0.68;;
11263;SDS011;5689;48.798;9.070;2022-10-17T00:15:19;0.73;;;0.73;;
11263;SDS011;5689;48.798;9.070;2022-10-17T00:17:47;0.70;;;0.70;;
11263;SDS011;5689;48.798;9.070;2022-10-17T00:20:16;0.75;;;0.75;;
11263;SDS011;5689;48.798;9.070;2022-10-17T00:22:44;0.68;;;0.68;;
11263;SDS011;5689;48.798;9.070;2022-10-17T00:25:12;0.68;;;0.68;;
11263;SDS011;5689;48.798;9.070;2022-10-17T00:27:41;0.70;;;0.70;;
11263;SDS011;5689;48.798;9.070;2022-10-17T00:30:10;0.70;;;0.70;;
11263;SDS011;5689;48.798;9.070;2022-10-17T00:32:40;0.88;;;0.88;;
11263;SDS011;5689;48.798;9.070;2022-10-17T00:35:08;0.90;;;0.90;;
11263;SDS011;5689;48.798;9.070;2022-10-17T00:37:37;0.90;;;0.90;;
11263;SDS011;5689;48.798;9.070;2022-10-17T00:40:05;0.77;;;0.77;;
11263;SDS011;5689;48.798;9.070;2022-10-17T00:42:34;0.80;;;0.80;;
11263;SDS011;5689;48.798;9.070;2022-10-17T00:45:05;0.88;;;0.88;;
11263;SDS011;5689;48.798;9.070;2022-10-17T00:47:47;1.17;;;1.17;;
11263;SDS011;5689;48.798;9.070;2022-10-17T00:50:20;1.02;;;1.02;;
11263;SDS011;5689;48.798;9.070;2022-10-17T00:52:49;0.82;;;0.82;;
11263;SDS011;5689;48.798;9.070;2022-10-17T00:55:21;0.90;;;0.90;;
11263;SDS011;5689;48.798;9.070;2022-10-17T00:57:54;0.75;;;0.75;;
11263;SDS011;5689;48.798;9.070;2022-10-17T01:00:24;0.60;;;0.60;;
11263;SDS011;5689;48.798;9.070;2022-10-17T01:02:53;0.73;;;0.73;;
11263;SDS011;5689;48.798;9.070;2022-10-17T01:05:21;0.77;;;0.77;;
11263;SDS011;5689;48.798;9.070;2022-10-17T01:07:49;0.77;;;0.77;;
11263;SDS011;5689;48.798;9.070;2022-10-17T01:10:20;0.63;;;0.63;;
11263;SDS011;5689;48.798;9.070;2022-10-17T01:12:54;0.77;;;0.77;;
11263;SDS011;5689;48.798;9.070;2022-10-17T01:15:33;0.73;;;0.73;;
11263;SDS011;5689;48.798;9.070;2022-10-17T01:18:14;0.73;;;0.73;;
11263;SDS011;5689;48.798;9.070;2022-10-17T01:20:59;0.77;;;0.77;;
11263;SDS011;5689;48.798;9.070;2022-10-17T01:26:47;0.77;;;0.77;;
11263;SDS011;5689;48.798;9.070;2022-10-17T01:32:33;0.77;;;0.77;;
11263;SDS011;5689;48.798;9.070;2022-10-17T01:35:05;0.60;;;0.60;;
11263;SDS011;5689;48.798;9.070;2022-10-17T01:37:39;0.65;;;0.65;;
11263;SDS011;5689;48.798;9.070;2022-10-17T01:40:12;0.77;;;0.77;;
11263;SDS011;5689;48.798;9.070;2022-10-17T01:42:46;0.82;;;0.82;;
11263;SDS011;5689;48.798;9.070;2022-10-17T01:45:28;0.73;;;0.73;;
11263;SDS011;5689;48.798;9.070;2022-10-17T01:48:03;0.82;;;0.82;;
11263;SDS011;5689;48.798;9.070;2022-10-17T01:50:36;0.90;;;0.90;;
11263;SDS011;5689;48.798;9.070;2022-10-17T01:53:10;0.85;;;0.85;;
11263;SDS011;5689;48.798;9.070;2022-10-17T01:55:41;0.77;;;0.77;;
11263;SDS011;5689;48.798;9.070;2022-10-17T01:58:13;0.85;;;0.85;;
11263;SDS011;5689;48.798;9.070;2022-10-17T02:00:44;0.77;;;0.77;;
11263;SDS011;5689;48.798;9.070;2022-10-17T02:03:16;0.77;;;0.77;;
11263;SDS011;5689;48.798;9.070;2022-10-17T02:05:47;0.68;;;0.68;;
11263;SDS011;5689;48.798;9.070;2022-10-17T02:08:23;0.82;;;0.82;;
11263;SDS011;5689;48.798;9.070;2022-10-17T02:10:53;0.73;;;0.73;;
11263;SDS011;5689;48.798;9.070;2022-10-17T02:13:26;0.65;;;0.65;;
11263;SDS011;5689;48.798;9.070;2022-10-17T02:16:11;0.70;;;0.70;;
11263;SDS011;5689;48.798;9.070;2022-10-17T02:18:53;0.68;;;0.68;;
11263;SDS011;5689;48.798;9.070;2022-10-17T02:21:34;0.70;;;0.70;;
11263;SDS011;5689;48.798;9.070;2022-10-17T02:24:15;0.70;;;0.70;;
11263;SDS011;5689;48.798;9.070;2022-10-17T02:26:51;0.65;;;0.65;;
11263;SDS011;5689;48.798;9.070;2022-10-17T02:29:27;0.73;;;0.73;;
11263;SDS011;5689;48.798;9.070;2022-10-17T02:32:01;0.73;;;0.73;;
11263;SDS011;5689;48.798;9.070;2022-10-17T02:34:35;0.70;;;0.70;;
11263;SDS011;5689;48.798;9.070;2022-10-17T02:37:06;0.80;;;0.80;;
11263;SDS011;5689;48.798;9.070;2022-10-17T02:39:36;0.65;;;0.65;;
11263;SDS011;5689;48.798;9.070;2022-10-17T02:42:06;0.77;;;0.77;;
11263;SDS011;5689;48.798;9.070;2022-10-17T02:44:36;0.73;;;0.73;;
11263;SDS011;5689;48.798;9.070;2022-10-17T02:47:08;0.70;;;0.70;;
11263;SDS011;5689;48.798;9.070;2022-10-17T02:49:43;0.95;;;0.95;;
11263;SDS011;5689;48.798;9.070;2022-10-17T02:52:17;1.08;;;1.08;;
11263;SDS011;5689;48.798;9.070;2022-10-17T02:54:51;1.55;;;1.55;;
11263;SDS011;5689;48.798;9.070;2022-10-17T02:57:24;1.23;;;1.23;;
11263;SDS011;5689;48.798;9.070;2022-10-17T02:59:55;1.10;;;1.10;;
11263;SDS011;5689;48.798;9.070;2022-10-17T03:02:25;1.15;;;1.15;;
11263;SDS011;5689;48.798;9.070;2022-10-17T03:04:57;0.85;;;0.85;;
11263;SDS011;5689;48.798;9.070;2022-10-17T03:07:29;1.02;;;1.02;;
11263;SDS011;5689;48.798;9.070;2022-10-17T03:09:59;0.93;;;0.93;;
11263;SDS011;5689;48.798;9.070;2022-10-17T03:12:27;0.75;;;0.75;;
11263;SDS011;5689;48.798;9.070;2022-10-17T03:14:56;0.95;;;0.95;;
11263;SDS011;5689;48.798;9.070;2022-10-17T03:17:24;0.77;;;0.77;;
11263;SDS011;5689;48.798;9.070;2022-10-17T03:19:52;0.80;;;0.80;;
11263;SDS011;5689;48.798;9.070;2022-10-17T03:22:21;0.75;;;0.75;;
11263;SDS011;5689;48.798;9.070;2022-10-17T03:24:49;0.77;;;0.77;;
11263;SDS011;5689;48.798;9.070;2022-10-17T03:27:18;0.95;;;0.95;;
11263;SDS011;5689;48.798;9.070;2022-10-17T03:29:46;0.73;;;0.73;;
11263;SDS011;5689;48.798;9.070;2022-10-17T03:32:14;0.82;;;0.82;;
11263;SDS011;5689;48.798;9.070;2022-10-17T03:34:45;0.82;;;0.82;;
11263;SDS011;5689;48.798;9.070;2022-10-17T03:37:13;0.85;;;0.85;;
11263;SDS011;5689;48.798;9.070;2022-10-17T03:39:44;0.85;;;0.85;;
11263;SDS011;5689;48.798;9.070;2022-10-17T03:42:12;1.00;;;1.00;;
11263;SDS011;5689;48.798;9.070;2022-10-17T03:44:40;0.93;;;0.93;;
11263;SDS011;5689;48.798;9.070;2022-10-17T03:47:08;0.82;;;0.82;;
11263;SDS011;5689;48.798;9.070;2022-10-17T03:49:37;0.93;;;0.93;;
11263;SDS011;5689;48.798;9.070;2022-10-17T03:52:06;0.88;;;0.88;;
11263;SDS011;5689;48.798;9.070;2022-10-17T03:54:37;0.88;;;0.88;;
11263;SDS011;5689;48.798;9.070;2022-10-17T03:57:06;0.95;;;0.95;;
11263;SDS011;5689;48.798;9.070;2022-10-17T03:59:35;0.77;;;0.77;;
11263;SDS011;5689;48.798;9.070;2022-10-17T04:05:31;0.75;;;0.75;;
11263;SDS011;5689;48.798;9.070;2022-10-17T04:08:11;0.77;;;0.77;;
11263;SDS011;5689;48.798;9.070;2022-10-17T04:11:01;0.80;;;0.80;;
11263;SDS011;5689;48.798;9.070;2022-10-17T04:13:32;0.98;;;0.98;;
11263;SDS011;5689;48.798;9.070;2022-10-17T04:16:02;0.82;;;0.82;;
11263;SDS011;5689;48.798;9.070;2022-10-17T04:18:34;0.90;;;0.90;;
11263;SDS011;5689;48.798;9.070;2022-10-17T04:21:15;0.95;;;0.95;;
11263;SDS011;5689;48.798;9.070;2022-10-17T04:23:44;1.35;;;1.35;;
11263;SDS011;5689;48.798;9.070;2022-10-17T04:26:25;0.85;;;0.85;;
11263;SDS011;5689;48.798;9.070;2022-10-17T04:28:55;0.93;;;0.93;;
11263;SDS011;5689;48.798;9.070;2022-10-17T04:31:22;0.82;;;0.82;;
11263;SDS011;5689;48.798;9.070;2022-10-17T04:34:03;0.80;;;0.80;;
11263;SDS011;5689;48.798;9.070;2022-10-17T04:36:32;0.80;;;0.80;;
11263;SDS011;5689;48.798;9.070;2022-10-17T04:39:07;0.93;;;0.93;;
11263;SDS011;5689;48.798;9.070;2022-10-17T04:41:36;0.77;;;0.77;;
11263;SDS011;5689;48.798;9.070;2022-10-17T04:44:06;0.93;;;0.93;;
11263;SDS011;5689;48.798;9.070;2022-10-17T04:46:37;0.77;;;0.77;;
11263;SDS011;5689;48.798;9.070;2022-10-17T04:49:05;0.88;;;0.88;;
11263;SDS011;5689;48.798;9.070;2022-10-17T04:51:33;1.10;;;1.10;;
11263;SDS011;5689;48.798;9.070;2022-10-17T04:54:11;0.95;;;0.95;;
11263;SDS011;5689;48.798;9.070;2022-10-17T04:56:41;0.80;;;0.80;;
11263;SDS011;5689;48.798;9.070;2022-10-17T04:59:11;0.90;;;0.90;;
11263;SDS011;5689;48.798;9.070;2022-10-17T05:01:41;0.98;;;0.98;;
11263;SDS011;5689;48.798;9.070;2022-10-17T05:04:09;0.73;;;0.73;;
11263;SDS011;5689;48.798;9.070;2022-10-17T05:06:37;0.80;;;0.80;;
11263;SDS011;5689;48.798;9.070;2022-10-17T05:09:20;0.80;;;0.80;;
11263;SDS011;5689;48.798;9.070;2022-10-17T05:11:48;0.90;;;0.90;;
11263;SDS011;5689;48.798;9.070;2022-10-17T05:14:18;0.93;;;0.93;;
11263;SDS011;5689;48.798;9.070;2022-10-17T05:16:47;0.77;;;0.77;;
11263;SDS011;5689;48.798;9.070;2022-10-17T05:19:15;1.15;;;1.15;;
11263;SDS011;5689;48.798;9.070;2022-10-17T05:21:46;0.93;;;0.93;;
11263;SDS011;5689;48.798;9.070;2022-10-17T05:24:27;0.90;;;0.90;;
11263;SDS011;5689;48.798;9.070;2022-10-17T05:26:55;0.90;;;0.90;;
11263;SDS011;5689;48.798;9.070;2022-10-17T05:29:24;0.80;;;0.80;;
11263;SDS011;5689;48.798;9.070;2022-10-17T05:32:01;1.05;;;1.05;;
11263;SDS011;5689;48.798;9.070;2022-10-17T05:34:29;0.77;;;0.77;;
11263;SDS011;5689;48.798;9.070;2022-10-17T05:36:57;0.73;;;0.73;;
11263;SDS011;5689;48.798;9.070;2022-10-17T05:39:25;0.80;;;0.80;;
11263;SDS011;5689;48.798;9.070;2022-10-17T05:41:55;0.82;;;0.82;;
11263;SDS011;5689;48.798;9.070;2022-10-17T05:44:24;0.68;;;0.68;;
11263;SDS011;5689;48.798;9.070;2022-10-17T05:46:55;0.55;;;0.55;;
11263;SDS011;5689;48.798;9.070;2022-10-17T05:49:25;0.57;;;0.57;;
11263;SDS011;5689;48.798;9.070;2022-10-17T05:52:09;0.60;;;0.60;;
11263;SDS011;5689;48.798;9.070;2022-10-17T05:54:52;0.55;;;0.55;;
11263;SDS011;5689;48.798;9.070;2022-10-17T05:57:23;0.70;;;0.70;;
11263;SDS011;5689;48.798;9.070;2022-10-17T05:59:53;0.68;;;0.68;;
11263;SDS011;5689;48.798;9.070;2022-10-17T06:02:21;0.73;;;0.73;;
11263;SDS011;5689;48.798;9.070;2022-10-17T06:04:49;0.70;;;0.70;;
11263;SDS011;5689;48.798;9.070;2022-10-17T06:07:19;0.68;;;0.68;;
11263;SDS011;5689;48.798;9.070;2022-10-17T06:09:47;0.68;;;0.68;;
11263;SDS011;5689;48.798;9.070;2022-10-17T06:12:15;0.47;;;0.47;;
11263;SDS011;5689;48.798;9.070;2022-10-17T06:14:44;0.47;;;0.47;;
11263;SDS011;5689;48.798;9.070;2022-10-17T06:17:15;0.47;;;0.47;;
11263;SDS011;5689;48.798;9.070;2022-10-17T06:19:43;0.50;;;0.50;;
11263;SDS011;5689;48.798;9.070;2022-10-17T06:22:13;0.52;;;0.52;;
11263;SDS011;5689;48.798;9.070;2022-10-17T06:24:41;0.50;;;0.50;;
11263;SDS011;5689;48.798;9.070;2022-10-17T06:27:10;0.50;;;0.50;;
11263;SDS011;5689;48.798;9.070;2022-10-17T06:29:39;0.50;;;0.50;;
11263;SDS011;5689;48.798;9.070;2022-10-17T06:32:08;0.57;;;0.57;;
11263;SDS011;5689;48.798;9.070;2022-10-17T06:34:39;0.60;;;0.60;;
11263;SDS011;5689;48.798;9.070;2022-10-17T06:37:07;0.63;;;0.63;;
11263;SDS011;5689;48.798;9.070;2022-10-17T06:39:37;0.47;;;0.47;;
11263;SDS011;5689;48.798;9.070;2022-10-17T06:42:18;0.47;;;0.47;;
11263;SDS011;5689;48.798;9.070;2022-10-17T06:45:07;0.50;;;0.50;;
11263;SDS011;5689;48.798;9.070;2022-10-17T06:47:54;0.50;;;0.50;;
11263;SDS011;5689;48.798;9.070;2022-10-17T06:50:53;2.85;;;2.75;;
11263;SDS011;5689;48.798;9.070;2022-10-17T06:53:26;0.68;;;0.68;;
11263;SDS011;5689;48.798;9.070;2022-10-17T06:56:08;0.60;;;0.60;;
11263;SDS011;5689;48.798;9.070;2022-10-17T06:58:46;0.60;;;0.60;;
11263;SDS011;5689;48.798;9.070;2022-10-17T07:01:32;0.55;;;0.55;;
11263;SDS011;5689;48.798;9.070;2022-10-17T07:04:02;0.38;;;0.38;;
11263;SDS011;5689;48.798;9.070;2022-10-17T07:06:33;0.40;;;0.40;;
11263;SDS011;5689;48.798;9.070;2022-10-17T07:09:07;0.25;;;0.25;;
11263;SDS011;5689;48.798;9.070;2022-10-17T07:11:35;0.20;;;0.20;;
11263;SDS011;5689;48.798;9.070;2022-10-17T07:14:05;0.20;;;0.20;;
11263;SDS011;5689;48.798;9.070;2022-10-17T07:16:34;0.20;;;0.20;;
11263;SDS011;5689;48.798;9.070;2022-10-17T07:19:14;0.10;;;0.10;;
11263;SDS011;5689;48.798;9.070;2022-10-17T07:21:43;0.10;;;0.10;;
11263;SDS011;5689;48.798;9.070;2022-10-17T07:24:11;0.05;;;0.05;;
11263;SDS011;5689;48.798;9.070;2022-10-17T07:26:44;0.00;;;0.00;;
11263;SDS011;5689;48.798;9.070;2022-10-17T07:29:12;0.10;;;0.10;;
11263;SDS011;5689;48.798;9.070;2022-10-17T07:32:06;0.10;;;0.10;;
11263;SDS011;5689;48.798;9.070;2022-10-17T07:34:35;0.00;;;0.00;;
11263;SDS011;5689;48.798;9.070;2022-10-17T07:37:06;0.00;;;0.00;;
11263;SDS011;5689;48.798;9.070;2022-10-17T07:39:36;0.00;;;0.00;;
11263;SDS011;5689;48.798;9.070;2022-10-17T07:42:05;0.00;;;0.00;;
11263;SDS011;5689;48.798;9.070;2022-10-17T07:44:34;0.00;;;0.00;;
11263;SDS011;5689;48.798;9.070;2022-10-17T07:47:02;0.00;;;0.00;;
11263;SDS011;5689;48.798;9.070;2022-10-17T07:49:30;0.00;;;0.00;;
11263;SDS011;5689;48.798;9.070;2022-10-17T07:51:58;0.00;;;0.00;;
11263;SDS011;5689;48.798;9.070;2022-10-17T07:54:27;0.00;;;0.00;;
11263;SDS011;5689;48.798;9.070;2022-10-17T07:56:55;0.00;;;0.00;;
11263;SDS011;5689;48.798;9.070;2022-10-17T07:59:23;0.00;;;0.00;;
11263;SDS011;5689;48.798;9.070;2022-10-17T08:01:53;0.00;;;0.00;;
11263;SDS011;5689;48.798;9.070;2022-10-17T08:04:22;0.00;;;0.00;;
11263;SDS011;5689;48.798;9.070;2022-10-17T08:06:50;0.00;;;0.00;;
11263;SDS011;5689;48.798;9.070;2022-10-17T08:09:18;0.00;;;0.00;;
11263;SDS011;5689;48.798;9.070;2022-10-17T08:11:48;0.00;;;0.00;;
11263;SDS011;5689;48.798;9.070;2022-10-17T08:14:16;0.00;;;0.00;;
11263;SDS011;5689;48.798;9.070;2022-10-17T08:16:44;0.10;;;0.10;;
11263;SDS011;5689;48.798;9.070;2022-10-17T08:19:12;0.00;;;0.00;;
11263;SDS011;5689;48.798;9.070;2022-10-17T08:21:40;0.00;;;0.00;;
11263;SDS011;5689;48.798;9.070;2022-10-17T08:24:10;0.00;;;0.00;;
11263;SDS011;5689;48.798;9.070;2022-10-17T08:26:38;0.00;;;0.00;;
11263;SDS011;5689;48.798;9.070;2022-10-17T08:29:12;0.00;;;0.00;;
11263;SDS011;5689;48.798;9.070;2022-10-17T08:31:40;0.00;;;0.00;;
11263;SDS011;5689;48.798;9.070;2022-10-17T08:34:10;0.00;;;0.00;;
11263;SDS011;5689;48.798;9.070;2022-10-17T08:36:38;0.00;;;0.00;;
11263;SDS011;5689;48.798;9.070;2022-10-17T08:39:06;0.10;;;0.10;;
11263;SDS011;5689;48.798;9.070;2022-10-17T08:41:39;0.00;;;0.00;;
11263;SDS011;5689;48.798;9.070;2022-10-17T08:44:21;0.10;;;0.10;;
11263;SDS011;5689;48.798;9.070;2022-10-17T08:47:01;0.00;;;0.00;;
11263;SDS011;5689;48.798;9.070;2022-10-17T08:49:35;0.00;;;0.00;;
11263;SDS011;5689;48.798;9.070;2022-10-17T08:52:06;0.10;;;0.10;;
11263;SDS011;5689;48.798;9.070;2022-10-17T08:54:42;0.00;;;0.00;;
11263;SDS011;5689;48.798;9.070;2022-10-17T08:57:13;0.00;;;0.00;;
11263;SDS011;5689;48.798;9.070;2022-10-17T08:59:44;0.10;;;0.10;;
11263;SDS011;5689;48.798;9.070;2022-10-17T09:02:28;0.10;;;0.10;;
11263;SDS011;5689;48.798;9.070;2022-10-17T09:05:18;0.00;;;0.00;;
11263;SDS011;5689;48.798;9.070;2022-10-17T09:07:57;0.00;;;0.00;;
11263;SDS011;5689;48.798;9.070;2022-10-17T09:10:33;0.00;;;0.00;;
11263;SDS011;5689;48.798;9.070;2022-10-17T09:13:15;0.00;;;0.00;;
11263;SDS011;5689;48.798;9.070;2022-10-17T09:16:10;0.00;;;0.00;;
11263;SDS011;5689;48.798;9.070;2022-10-17T09:18:52;0.00;;;0.00;;
11263;SDS011;5689;48.798;9.070;2022-10-17T09:21:28;0.00;;;0.00;;
11263;SDS011;5689;48.798;9.070;2022-10-17T09:24:04;0.00;;;0.00;;
11263;SDS011;5689;48.798;9.070;2022-10-17T09:26:40;0.00;;;0.00;;
11263;SDS011;5689;48.798;9.070;2022-10-17T09:29:13;0.00;;;0.00;;
11263;SDS011;5689;48.798;9.070;2022-10-17T09:31:47;0.00;;;0.00;;
11263;SDS011;5689;48.798;9.070;2022-10-17T09:34:18;0.00;;;0.00;;
11263;SDS011;5689;48.798;9.070;2022-10-17T09:36:54;0.20;;;0.10;;
11263;SDS011;5689;48.798;9.070;2022-10-17T09:39:25;0.00;;;0.00;;
11263;SDS011;5689;48.798;9.070;2022-10-17T09:41:57;0.10;;;0.10;;
11263;SDS011;5689;48.798;9.070;2022-10-17T09:44:28;0.00;;;0.00;;
11263;SDS011;5689;48.798;9.070;2022-10-17T09:47:02;0.00;;;0.00;;
11263;SDS011;5689;48.798;9.070;2022-10-17T09:49:37;0.00;;;0.00;;
11263;SDS011;5689;48.798;9.070;2022-10-17T09:52:09;0.00;;;0.00;;
11263;SDS011;5689;48.798;9.070;2022-10-17T09:54:40;0.00;;;0.00;;
11263;SDS011;5689;48.798;9.070;2022-10-17T09:57:11;0.00;;;0.00;;
11263;SDS011;5689;48.798;9.070;2022-10-17T09:59:40;0.00;;;0.00;;
11263;SDS011;5689;48.798;9.070;2022-10-17T10:02:15;0.10;;;0.10;;
11263;SDS011;5689;48.798;9.070;2022-10-17T10:04:53;0.00;;;0.00;;
11263;SDS011;5689;48.798;9.070;2022-10-17T10:07:32;0.00;;;0.00;;
11263;SDS011;5689;48.798;9.070;2022-10-17T10:10:02;0.00;;;0.00;;
11263;SDS011;5689;48.798;9.070;2022-10-17T10:12:33;0.00;;;0.00;;
11263;SDS011;5689;48.798;9.070;2022-10-17T10:15:08;0.08;;;0.08;;
11263;SDS011;5689;48.798;9.070;2022-10-17T10:17:58;0.00;;;0.00;;
11263;SDS011;5689;48.798;9.070;2022-10-17T10:20:28;0.00;;;0.00;;
11263;SDS011;5689;48.798;9.070;2022-10-17T10:23:05;0.00;;;0.00;;
11263;SDS011;5689;48.798;9.070;2022-10-17T10:25:43;0.00;;;0.00;;
11263;SDS011;5689;48.798;9.070;2022-10-17T10:28:18;0.00;;;0.00;;
11263;SDS011;5689;48.798;9.070;2022-10-17T10:30:48;0.00;;;0.00;;
11263;SDS011;5689;48.798;9.070;2022-10-17T10:33:20;0.00;;;0.00;;
11263;SDS011;5689;48.798;9.070;2022-10-17T10:35:53;0.00;;;0.00;;
11263;SDS011;5689;48.798;9.070;2022-10-17T10:38:24;0.00;;;0.00;;
11263;SDS011;5689;48.798;9.070;2022-10-17T10:40:53;0.00;;;0.00;;
11263;SDS011;5689;48.798;9.070;2022-10-17T10:43:26;0.00;;;0.00;;
11263;SDS011;5689;48.798;9.070;2022-10-17T10:45:59;0.00;;;0.00;;
11263;SDS011;5689;48.798;9.070;2022-10-17T10:48:31;0.00;;;0.00;;
11263;SDS011;5689;48.798;9.070;2022-10-17T10:51:03;0.00;;;0.00;;
11263;SDS011;5689;48.798;9.070;2022-10-17T10:53:40;0.00;;;0.00;;
11263;SDS011;5689;48.798;9.070;2022-10-17T10:56:13;0.00;;;0.00;;
11263;SDS011;5689;48.798;9.070;2022-10-17T10:58:51;0.00;;;0.00;;
11263;SDS011;5689;48.798;9.070;2022-10-17T11:01:24;0.00;;;0.00;;
11263;SDS011;5689;48.798;9.070;2022-10-17T11:04:00;0.00;;;0.00;;
11263;SDS011;5689;48.798;9.070;2022-10-17T11:06:39;0.00;;;0.00;;
11263;SDS011;5689;48.798;9.070;2022-10-17T11:09:11;0.00;;;0.00;;
11263;SDS011;5689;48.798;9.070;2022-10-17T11:11:52;0.00;;;0.00;;
11263;SDS011;5689;48.798;9.070;2022-10-17T11:14:31;0.00;;;0.00;;
11263;SDS011;5689;48.798;9.070;2022-10-17T11:17:06;0.00;;;0.00;;
11263;SDS011;5689;48.798;9.070;2022-10-17T11:19:46;0.00;;;0.00;;
11263;SDS011;5689;48.798;9.070;2022-10-17T11:22:23;0.00;;;0.00;;
11263;SDS011;5689;48.798;9.070;2022-10-17T11:24:57;0.00;;;0.00;;
11263;SDS011;5689;48.798;9.070;2022-10-17T11:27:27;0.00;;;0.00;;
11263;SDS011;5689;48.798;9.070;2022-10-17T11:29:56;0.00;;;0.00;;
11263;SDS011;5689;48.798;9.070;2022-10-17T11:32:25;0.00;;;0.00;;
11263;SDS011;5689;48.798;9.070;2022-10-17T11:35:01;0.00;;;0.00;;
11263;SDS011;5689;48.798;9.070;2022-10-17T11:37:33;0.00;;;0.00;;
11263;SDS011;5689;48.798;9.070;2022-10-17T11:40:08;0.00;;;0.00;;
11263;SDS011;5689;48.798;9.070;2022-10-17T11:42:43;0.00;;;0.00;;
11263;SDS011;5689;48.798;9.070;2022-10-17T11:45:19;0.00;;;0.00;;
11263;SDS011;5689;48.798;9.070;2022-10-17T11:47:50;0.00;;;0.00;;
11263;SDS011;5689;48.798;9.070;2022-10-17T11:50:24;0.00;;;0.00;;
11263;SDS011;5689;48.798;9.070;2022-10-17T11:53:16;0.00;;;0.00;;
11263;SDS011;5689;48.798;9.070;2022-10-17T11:55:47;0.00;;;0.00;;
11263;SDS011;5689;48.798;9.070;2022-10-17T11:58:21;0.00;;;0.00;;
11263;SDS011;5689;48.798;9.070;2022-10-17T12:00:59;0.00;;;0.00;;
11263;SDS011;5689;48.798;9.070;2022-10-17T12:03:38;0.00;;;0.00;;
11263;SDS011;5689;48.798;9.070;2022-10-17T12:06:31;0.00;;;0.00;;
11263;SDS011;5689;48.798;9.070;2022-10-17T12:09:09;0.00;;;0.00;;
11263;SDS011;5689;48.798;9.070;2022-10-17T12:11:46;0.00;;;0.00;;
11263;SDS011;5689;48.798;9.070;2022-10-17T12:14:35;0.00;;;0.00;;
11263;SDS011;5689;48.798;9.070;2022-10-17T12:20:16;0.00;;;0.00;;
11263;SDS011;5689;48.798;9.070;2022-10-17T12:22:58;0.00;;;0.00;;
11263;SDS011;5689;48.798;9.070;2022-10-17T12:25:31;0.00;;;0.00;;
11263;SDS011;5689;48.798;9.070;2022-10-17T12:28:13;0.00;;;0.00;;
11263;SDS011;5689;48.798;9.070;2022-10-17T12:30:50;0.00;;;0.00;;
11263;SDS011;5689;48.798;9.070;2022-10-17T12:33:21;0.00;;;0.00;;
11263;SDS011;5689;48.798;9.070;2022-10-17T12:45:43;0.00;;;0.00;;
11263;SDS011;5689;48.798;9.070;2022-10-17T12:48:18;0.00;;;0.00;;
11263;SDS011;5689;48.798;9.070;2022-10-17T12:51:24;0.00;;;0.00;;
11263;SDS011;5689;48.798;9.070;2022-10-17T12:54:01;0.00;;;0.00;;
11263;SDS011;5689;48.798;9.070;2022-10-17T12:56:35;0.00;;;0.00;;
11263;SDS011;5689;48.798;9.070;2022-10-17T12:59:08;0.00;;;0.00;;
11263;SDS011;5689;48.798;9.070;2022-10-17T13:01:42;0.00;;;0.00;;
11263;SDS011;5689;48.798;9.070;2022-10-17T13:04:13;0.00;;;0.00;;
11263;SDS011;5689;48.798;9.070;2022-10-17T13:06:43;0.00;;;0.00;;
11263;SDS011;5689;48.798;9.070;2022-10-17T13:09:19;0.00;;;0.00;;
11263;SDS011;5689;48.798;9.070;2022-10-17T13:11:52;0.00;;;0.00;;
11263;SDS011;5689;48.798;9.070;2022-10-17T13:14:22;0.00;;;0.00;;
11263;SDS011;5689;48.798;9.070;2022-10-17T13:16:52;0.00;;;0.00;;
11263;SDS011;5689;48.798;9.070;2022-10-17T13:19:22;0.00;;;0.00;;
11263;SDS011;5689;48.798;9.070;2022-10-17T13:21:52;0.00;;;0.00;;
11263;SDS011;5689;48.798;9.070;2022-10-17T13:24:26;0.00;;;0.00;;
11263;SDS011;5689;48.798;9.070;2022-10-17T13:26:56;0.00;;;0.00;;
11263;SDS011;5689;48.798;9.070;2022-10-17T13:29:27;0.00;;;0.00;;
11263;SDS011;5689;48.798;9.070;2022-10-17T13:31:58;0.00;;;0.00;;
11263;SDS011;5689;48.798;9.070;2022-10-17T13:34:29;0.00;;;0.00;;
11263;SDS011;5689;48.798;9.070;2022-10-17T13:36:59;0.00;;;0.00;;
11263;SDS011;5689;48.798;9.070;2022-10-17T13:39:29;0.00;;;0.00;;
11263;SDS011;5689;48.798;9.070;2022-10-17T13:42:16;0.00;;;0.00;;
11263;SDS011;5689;48.798;9.070;2022-10-17T13:44:50;0.00;;;0.00;;
11263;SDS011;5689;48.798;9.070;2022-10-17T13:47:19;0.00;;;0.00;;
11263;SDS011;5689;48.798;9.070;2022-10-17T13:49:49;0.00;;;0.00;;
11263;SDS011;5689;48.798;9.070;2022-10-17T13:52:20;0.00;;;0.00;;
11263;SDS011;5689;48.798;9.070;2022-10-17T13:54:51;0.00;;;0.00;;
11263;SDS011;5689;48.798;9.070;2022-10-17T13:57:20;0.00;;;0.00;;
11263;SDS011;5689;48.798;9.070;2022-10-17T13:59:53;0.00;;;0.00;;
11263;SDS011;5689;48.798;9.070;2022-10-17T14:02:24;0.00;;;0.00;;
11263;SDS011;5689;48.798;9.070;2022-10-17T14:05:00;0.00;;;0.00;;
11263;SDS011;5689;48.798;9.070;2022-10-17T14:07:43;0.00;;;0.00;;
11263;SDS011;5689;48.798;9.070;2022-10-17T14:10:36;0.00;;;0.00;;
11263;SDS011;5689;48.798;9.070;2022-10-17T14:13:06;0.00;;;0.00;;
11263;SDS011;5689;48.798;9.070;2022-10-17T14:15:45;0.00;;;0.00;;
11263;SDS011;5689;48.798;9.070;2022-10-17T14:18:16;0.00;;;0.00;;
11263;SDS011;5689;48.798;9.070;2022-10-17T14:20:47;0.00;;;0.00;;
11263;SDS011;5689;48.798;9.070;2022-10-17T14:23:40;0.00;;;0.00;;
11263;SDS011;5689;48.798;9.070;2022-10-17T14:26:10;0.00;;;0.00;;
11263;SDS011;5689;48.798;9.070;2022-10-17T14:28:42;0.00;;;0.00;;
11263;SDS011;5689;48.798;9.070;2022-10-17T14:31:19;0.00;;;0.00;;
11263;SDS011;5689;48.798;9.070;2022-10-17T14:33:50;0.00;;;0.00;;
11263;SDS011;5689;48.798;9.070;2022-10-17T14:36:28;0.00;;;0.00;;
11263;SDS011;5689;48.798;9.070;2022-10-17T14:39:02;0.00;;;0.00;;
11263;SDS011;5689;48.798;9.070;2022-10-17T14:41:34;0.00;;;0.00;;
11263;SDS011;5689;48.798;9.070;2022-10-17T14:44:13;0.00;;;0.00;;
11263;SDS011;5689;48.798;9.070;2022-10-17T14:46:47;0.00;;;0.00;;
11263;SDS011;5689;48.798;9.070;2022-10-17T14:49:20;0.00;;;0.00;;
11263;SDS011;5689;48.798;9.070;2022-10-17T14:54:57;0.00;;;0.00;;
11263;SDS011;5689;48.798;9.070;2022-10-17T14:57:28;0.00;;;0.00;;
11263;SDS011;5689;48.798;9.070;2022-10-17T15:00:08;0.00;;;0.00;;
11263;SDS011;5689;48.798;9.070;2022-10-17T15:02:42;0.00;;;0.00;;
11263;SDS011;5689;48.798;9.070;2022-10-17T15:05:11;0.00;;;0.00;;
11263;SDS011;5689;48.798;9.070;2022-10-17T15:07:39;0.00;;;0.00;;
11263;SDS011;5689;48.798;9.070;2022-10-17T15:10:10;0.00;;;0.00;;
11263;SDS011;5689;48.798;9.070;2022-10-17T15:12:50;0.00;;;0.00;;
11263;SDS011;5689;48.798;9.070;2022-10-17T15:15:21;0.00;;;0.00;;
11263;SDS011;5689;48.798;9.070;2022-10-17T15:17:50;0.00;;;0.00;;
11263;SDS011;5689;48.798;9.070;2022-10-17T15:20:19;0.00;;;0.00;;
11263;SDS011;5689;48.798;9.070;2022-10-17T15:22:51;0.00;;;0.00;;
11263;SDS011;5689;48.798;9.070;2022-10-17T15:25:20;0.00;;;0.00;;
11263;SDS011;5689;48.798;9.070;2022-10-17T15:27:48;0.00;;;0.00;;
11263;SDS011;5689;48.798;9.070;2022-10-17T15:30:17;0.00;;;0.00;;
11263;SDS011;5689;48.798;9.070;2022-10-17T15:32:48;0.00;;;0.00;;
11263;SDS011;5689;48.798;9.070;2022-10-17T15:35:18;0.00;;;0.00;;
11263;SDS011;5689;48.798;9.070;2022-10-17T15:37:47;0.00;;;0.00;;
11263;SDS011;5689;48.798;9.070;2022-10-17T15:40:16;0.00;;;0.00;;
11263;SDS011;5689;48.798;9.070;2022-10-17T15:42:46;0.00;;;0.00;;
11263;SDS011;5689;48.798;9.070;2022-10-17T15:45:15;0.00;;;0.00;;
11263;SDS011;5689;48.798;9.070;2022-10-17T15:47:48;0.00;;;0.00;;
11263;SDS011;5689;48.798;9.070;2022-10-17T15:50:19;0.00;;;0.00;;
11263;SDS011;5689;48.798;9.070;2022-10-17T15:52:48;0.00;;;0.00;;
11263;SDS011;5689;48.798;9.070;2022-10-17T15:55:17;0.00;;;0.00;;
11263;SDS011;5689;48.798;9.070;2022-10-17T15:57:46;0.00;;;0.00;;
11263;SDS011;5689;48.798;9.070;2022-10-17T16:00:15;0.00;;;0.00;;